Gladeville, Tennessee
Current Conditions -  °F | °C
As of 5:53 AM on Monday 22 Dec 2014 (Local Time) from KBNA Reporting Station
Overcast Overcast  
Wind Chill: 46°   Ceiling: 2700
Heat Index: 48°   Visibility: 8mi
Dew Point: 44°   Wind: 5mph
Humidity: 86%   Direction: 130°SE
Pressure: 29.95"   Gusts: NA
Location:  36.11°N, 86.42°W
Report Text: KBNA 221153Z 13004KT 8SM SCT016 OVC027 09/07 A2995 RMK AO2 SLP142 T00890067 10089 20056 56008
Loading
Personal Weather Stations






























Interactive Weather Map New forecast layout! Learn more

10-Day Weather Forecast

Advertisements
Track Severe Weather on mobile